Terminal Aerodrome Forecast
Issued by NWS

Home | Current Version | Previous Version | Text Only | Print | Product List | Glossary On
Versions: 1 2 3 4 5 6 7 8 9 10 11 12 13 14
594
FTUS44 KSJT 262337
TAFJCT
TAF
KJCT 262337Z 2700/2724 VRB05KT P6SM SKC
     FM270800 VRB03KT P6SM SCT020
     FM271300 36004KT P6SM SKC=

USA.gov is the U.S. government's official web portal to all federal, state and local government web resources and services.